createdAt,value
2022-11-05T00:00:03.213Z,2.27
2022-11-05T00:01:15.686Z,2.23
2022-11-05T00:02:08.838Z,2.26
2022-11-05T00:03:03.165Z,2.20
2022-11-05T00:04:30.620Z,2.17
2022-11-05T00:05:31.488Z,2.13
2022-11-05T00:06:22.208Z,2.09
2022-11-05T00:07:18.401Z,2.04
2022-11-05T00:08:31.971Z,2.02
2022-11-05T00:34:16.206Z,1.93
2022-11-05T00:34:35.548Z,1.93
2022-11-05T00:35:54.905Z,1.90
2022-11-05T00:36:44.740Z,1.85
2022-11-05T00:37:45.675Z,1.87
2022-11-05T00:39:23.426Z,1.91
2022-11-05T00:40:02.832Z,1.94
2022-11-05T00:40:52.192Z,1.91
2022-11-05T00:41:53.663Z,1.91
2022-11-05T00:42:55.283Z,1.93
2022-11-05T00:50:55.799Z,1.91
2022-11-05T00:56:30.859Z,1.91
2022-11-05T00:57:30.968Z,1.89
2022-11-05T00:58:36.251Z,1.83
2022-11-05T01:00:47.475Z,1.79
2022-11-05T01:01:35.531Z,1.78
2022-11-05T01:03:18.861Z,1.73
2022-11-05T01:03:37.877Z,1.71
2022-11-05T01:04:30.463Z,1.71
2022-11-05T01:05:27.095Z,1.69
2022-11-05T01:06:44.791Z,1.68
2022-11-05T01:07:31.109Z,1.69
2022-11-05T01:08:44.073Z,1.71
2022-11-05T01:21:41.528Z,2.85
2022-11-05T01:22:40.418Z,2.84
2022-11-05T01:23:33.234Z,2.87
2022-11-05T01:24:42.443Z,2.87
2022-11-05T01:25:53.744Z,2.88
2022-11-05T01:26:35.109Z,2.91
2022-11-05T01:27:36.813Z,2.91
2022-11-05T01:28:30.190Z,2.91
2022-11-05T01:29:34.663Z,2.91
2022-11-05T01:31:00.572Z,2.87
2022-11-05T01:31:31.158Z,2.84
2022-11-05T01:32:25.567Z,2.81
2022-11-05T01:35:36.993Z,2.71
2022-11-05T01:36:01.223Z,2.64
2022-11-05T01:37:03.420Z,2.58
2022-11-05T01:37:59.879Z,2.49
2022-11-05T01:44:39.284Z,1.98
2022-11-05T01:45:50.849Z,1.94
2022-11-05T01:46:48.422Z,1.91
2022-11-05T01:47:54.701Z,1.87
2022-11-05T01:48:42.906Z,1.85
2022-11-05T01:50:15.368Z,1.82
2022-11-05T01:50:40.679Z,1.82
2022-11-05T01:51:35.712Z,1.85
2022-11-05T01:52:40.636Z,1.87
2022-11-05T01:53:37.489Z,1.87
2022-11-05T01:54:41.995Z,1.89
2022-11-05T01:56:14.214Z,1.87
2022-11-05T01:56:37.101Z,1.85
2022-11-05T01:57:46.527Z,1.83
2022-11-05T01:58:53.601Z,1.82
2022-11-05T02:00:25.024Z,1.76
2022-11-05T02:00:35.431Z,1.75
2022-11-05T02:02:03.427Z,1.73
2022-11-05T02:02:40.383Z,1.72
2022-11-05T02:03:59.938Z,1.65
2022-11-05T02:04:51.868Z,1.61
2022-11-05T02:05:56.735Z,1.57
2022-11-05T02:06:41.656Z,1.52
2022-11-05T02:07:37.966Z,1.51
2022-11-05T02:08:55.708Z,1.50
2022-11-05T02:09:35.120Z,1.50
2022-11-05T02:10:56.368Z,1.51
2022-11-05T02:11:39.990Z,1.52
2022-11-05T02:12:39.395Z,1.51
2022-11-05T02:13:46.095Z,1.50
2022-11-05T02:14:35.543Z,1.51
2022-11-05T02:15:53.964Z,1.50
2022-11-05T02:16:41.712Z,1.52
2022-11-05T02:17:36.252Z,1.54
2022-11-05T02:18:35.832Z,1.51
2022-11-05T02:19:34.344Z,1.50
2022-11-05T02:20:49.397Z,1.47
2022-11-05T02:21:34.268Z,1.47
2022-11-05T02:26:38.035Z,1.39
2022-11-05T02:27:51.199Z,1.33
2022-11-05T02:29:09.582Z,1.26
2022-11-05T02:29:45.532Z,1.22
2022-11-05T02:30:40.819Z,1.18
2022-11-05T02:31:57.250Z,1.12
2022-11-05T02:32:51.156Z,1.07
2022-11-05T02:34:07.704Z,1.00
2022-11-05T02:34:39.680Z,0.97
2022-11-05T02:35:43.943Z,1.00
2022-11-05T02:37:20.719Z,1.00
2022-11-05T02:37:50.404Z,1.03
2022-11-05T02:38:43.646Z,1.00
2022-11-05T02:40:08.890Z,1.03
2022-11-05T02:40:50.114Z,1.03
2022-11-05T02:41:39.335Z,1.06
2022-11-05T02:42:55.777Z,1.07
2022-11-05T02:43:43.560Z,1.10
2022-11-05T02:44:57.393Z,1.16
2022-11-05T02:46:12.281Z,1.19
2022-11-05T02:46:47.939Z,1.22
2022-11-05T02:48:20.134Z,1.24
2022-11-05T02:48:58.907Z,1.28
2022-11-05T02:49:46.619Z,1.32
2022-11-05T02:50:44.880Z,1.33
2022-11-05T02:51:54.532Z,1.33
2022-11-05T02:52:57.947Z,1.32
2022-11-05T02:56:20.368Z,1.33
2022-11-05T02:57:57.589Z,1.29
2022-11-05T02:58:17.327Z,1.32
2022-11-05T02:59:10.139Z,1.32
2022-11-05T03:00:12.239Z,1.26
2022-11-05T03:01:19.638Z,1.25
2022-11-05T03:02:07.802Z,1.22
2022-11-05T03:03:17.409Z,1.18
2022-11-05T03:04:04.816Z,1.16
2022-11-05T03:05:25.583Z,1.15
2022-11-05T03:06:45.186Z,1.14
2022-11-05T03:07:19.535Z,1.12
2022-11-05T03:08:05.493Z,1.12
2022-11-05T03:09:03.175Z,1.10
2022-11-05T03:10:03.220Z,1.08
2022-11-05T03:11:03.269Z,1.08
2022-11-05T03:12:03.254Z,1.08
2022-11-05T03:13:03.269Z,1.07
2022-11-05T03:14:03.112Z,1.04
2022-11-05T03:15:03.162Z,1.03
2022-11-05T03:16:03.293Z,1.03
2022-11-05T03:17:03.227Z,1.00
2022-11-05T03:18:03.109Z,0.97
2022-11-05T03:19:03.123Z,0.97
2022-11-05T03:20:03.277Z,0.94
2022-11-05T03:21:03.102Z,0.90
2022-11-05T03:22:03.169Z,0.92
2022-11-05T03:23:03.313Z,0.90
2022-11-05T03:24:09.715Z,0.88
2022-11-05T03:25:03.236Z,0.88
2022-11-05T03:26:03.094Z,0.85
2022-11-05T03:27:03.002Z,0.86
2022-11-05T03:28:03.036Z,0.89
2022-11-05T03:29:03.048Z,0.92
2022-11-05T03:30:03.063Z,0.96
2022-11-05T03:31:02.954Z,1.03
2022-11-05T03:32:03.043Z,1.08
2022-11-05T03:33:02.987Z,1.15
2022-11-05T03:34:03.266Z,1.18
2022-11-05T03:35:02.942Z,1.21
2022-11-05T03:36:02.919Z,1.33
2022-11-05T03:37:02.956Z,1.42
2022-11-05T03:38:03.807Z,1.52
2022-11-05T03:39:02.902Z,1.57
2022-11-05T03:40:03.107Z,1.64
2022-11-05T03:41:03.044Z,1.71
2022-11-05T03:42:02.897Z,1.75
2022-11-05T03:43:02.791Z,1.80
2022-11-05T03:44:02.847Z,1.87
2022-11-05T03:45:02.900Z,1.90
2022-11-05T03:46:02.819Z,1.91
2022-11-05T03:47:03.007Z,1.94
2022-11-05T03:48:02.847Z,1.99
2022-11-05T03:49:03.006Z,1.99
2022-11-05T03:50:02.834Z,2.01
2022-11-05T03:51:02.868Z,2.01
2022-11-05T03:52:02.697Z,1.98
2022-11-05T03:53:02.653Z,1.94
2022-11-05T03:54:02.726Z,1.90
2022-11-05T03:55:15.572Z,1.87
2022-11-05T03:56:06.948Z,1.82
2022-11-05T03:57:18.711Z,1.82
2022-11-05T03:58:17.457Z,1.78
2022-11-05T03:59:15.202Z,1.78
2022-11-05T04:00:18.873Z,1.75
2022-11-05T04:01:28.697Z,1.72
2022-11-05T04:02:09.111Z,1.68
2022-11-05T04:03:20.564Z,1.68
2022-11-05T04:04:19.156Z,1.73
2022-11-05T04:05:38.573Z,1.78
2022-11-05T04:06:24.421Z,1.79
2022-11-05T04:07:22.288Z,1.80
2022-11-05T04:15:32.221Z,1.73
2022-11-05T04:16:41.187Z,1.69
2022-11-05T04:17:59.395Z,1.64
2022-11-05T04:18:30.368Z,1.61
2022-11-05T04:19:38.112Z,1.60
2022-11-05T04:20:49.072Z,1.57
2022-11-05T04:21:40.410Z,1.57
2022-11-05T04:22:49.664Z,1.58
2022-11-05T04:23:39.311Z,1.58
2022-11-05T04:24:36.377Z,1.54
2022-11-05T04:25:31.415Z,1.51
2022-11-05T04:26:32.249Z,1.50
2022-11-05T04:27:40.941Z,1.44
2022-11-05T04:28:48.907Z,1.39
2022-11-05T04:29:35.111Z,1.33
2022-11-05T04:43:34.648Z,1.58
2022-11-05T04:44:49.261Z,1.57
2022-11-05T04:45:43.689Z,1.52
2022-11-05T04:46:46.647Z,1.50
2022-11-05T04:47:54.261Z,1.43
2022-11-05T04:48:40.851Z,1.40
2022-11-05T04:49:32.467Z,1.39
2022-11-05T04:51:03.784Z,1.39
2022-11-05T04:51:39.271Z,1.42
2022-11-05T04:52:46.011Z,1.47
2022-11-05T04:53:44.456Z,1.51
2022-11-05T04:54:36.430Z,1.51
2022-11-05T04:55:42.165Z,1.51
2022-11-05T04:58:21.896Z,1.51
2022-11-05T04:59:15.849Z,1.50
2022-11-05T05:00:13.910Z,1.50
2022-11-05T05:01:06.657Z,1.55
2022-11-05T05:02:05.355Z,1.55
2022-11-05T05:03:03.099Z,1.58
2022-11-05T05:04:06.859Z,1.61
2022-11-05T05:05:11.721Z,1.61
2022-11-05T05:06:03.897Z,1.60
2022-11-05T05:07:02.673Z,1.61
2022-11-05T05:08:19.456Z,1.55
2022-11-05T05:09:09.405Z,1.54
2022-11-05T05:09:58.363Z,1.52
2022-11-05T05:11:12.527Z,1.46
2022-11-05T05:56:56.861Z,1.18
2022-11-05T05:57:16.427Z,1.21
2022-11-05T05:58:20.324Z,1.19
2022-11-05T05:59:21.807Z,1.22
2022-11-05T06:00:10.458Z,1.28
2022-11-05T06:01:05.743Z,1.33
2022-11-05T06:02:06.058Z,1.36
2022-11-05T06:03:44.980Z,1.39
2022-11-05T06:04:20.282Z,1.40
2022-11-05T06:05:11.000Z,1.44
2022-11-05T06:06:07.825Z,1.46
2022-11-05T06:07:04.374Z,1.50
2022-11-05T06:08:19.175Z,1.52
2022-11-05T06:09:17.147Z,1.55
2022-11-05T06:10:27.547Z,1.58
2022-11-05T06:11:16.791Z,1.58
2022-11-05T06:12:18.449Z,1.58
2022-11-05T06:13:05.813Z,1.58
2022-11-05T06:14:25.462Z,1.58
2022-11-05T06:15:13.300Z,1.57
2022-11-05T06:16:13.712Z,1.55
2022-11-05T06:17:09.525Z,1.55
2022-11-05T06:18:09.506Z,1.55
2022-11-05T06:19:14.458Z,1.54
2022-11-05T06:20:03.936Z,1.52
2022-11-05T06:21:22.718Z,1.52
2022-11-05T06:22:09.168Z,1.50
2022-11-05T06:23:17.323Z,1.46
2022-11-05T06:24:14.734Z,1.43
2022-11-05T06:25:11.660Z,1.43
2022-11-05T06:26:29.834Z,1.43
2022-11-05T06:27:19.829Z,1.42
2022-11-05T06:28:05.024Z,1.36
2022-11-05T06:29:09.017Z,1.32
2022-11-05T06:30:07.883Z,1.26
2022-11-05T06:31:14.582Z,1.21
2022-11-05T06:32:08.414Z,1.21
2022-11-05T06:33:17.001Z,1.22
2022-11-05T06:34:05.079Z,1.19
2022-11-05T06:35:11.354Z,1.18
2022-11-05T06:36:04.265Z,1.16
2022-11-05T06:37:06.850Z,1.15
2022-11-05T06:38:07.974Z,1.15
2022-11-05T06:39:10.226Z,1.14
2022-11-05T06:40:04.904Z,1.14
2022-11-05T06:41:10.216Z,1.10
2022-11-05T06:43:13.716Z,1.19
2022-11-05T06:44:19.907Z,1.24
2022-11-05T06:45:17.130Z,1.29
2022-11-05T06:46:09.149Z,1.37
2022-11-05T06:47:12.570Z,1.43
2022-11-05T06:48:23.414Z,1.50
2022-11-05T06:49:07.825Z,1.54
2022-11-05T06:50:04.652Z,1.58
2022-11-05T06:51:10.695Z,1.62
2022-11-05T06:52:13.536Z,1.69
2022-11-05T06:53:03.537Z,1.73
2022-11-05T06:54:01.466Z,1.79
2022-11-05T06:55:03.115Z,1.80
2022-11-05T06:56:02.532Z,1.83
2022-11-05T06:57:02.137Z,1.85
2022-11-05T06:58:08.517Z,1.83
2022-11-05T06:59:18.147Z,1.83
2022-11-05T07:00:54.390Z,1.90
2022-11-05T07:01:49.813Z,1.98
2022-11-05T07:02:30.858Z,2.04
2022-11-05T07:03:18.024Z,2.09
2022-11-05T07:04:26.872Z,2.12
2022-11-05T07:05:17.222Z,2.16
2022-11-05T07:06:21.944Z,2.19
2022-11-05T07:07:36.789Z,2.23
2022-11-05T07:08:15.720Z,2.28
2022-11-05T07:09:18.118Z,2.31
2022-11-05T07:10:26.238Z,2.37
2022-11-05T07:11:33.942Z,2.41
2022-11-05T07:12:07.064Z,2.45
2022-11-05T07:13:09.872Z,2.46
2022-11-05T07:14:14.260Z,2.46
2022-11-05T07:15:17.959Z,2.45
2022-11-05T07:16:41.737Z,2.45
2022-11-05T07:24:57.757Z,2.77
2022-11-05T07:26:05.611Z,2.79
2022-11-05T07:26:51.349Z,2.84
2022-11-05T07:27:47.386Z,2.89
2022-11-05T07:28:45.471Z,2.95
2022-11-05T07:29:49.471Z,3.02
2022-11-05T07:30:51.385Z,3.03
2022-11-05T07:31:55.394Z,3.05
2022-11-05T07:32:53.301Z,3.06
2022-11-05T07:33:57.013Z,3.16
2022-11-05T07:35:09.215Z,3.20
2022-11-05T07:35:53.930Z,3.23
2022-11-05T07:36:57.780Z,3.27
2022-11-05T07:37:49.906Z,3.31
2022-11-05T07:39:00.320Z,3.39
2022-11-05T07:39:57.104Z,3.44
2022-11-05T07:41:25.765Z,3.49
2022-11-05T07:42:00.417Z,3.54
2022-11-05T07:42:55.175Z,3.61
2022-11-05T07:43:57.001Z,3.67
2022-11-05T07:45:08.129Z,3.75
2022-11-05T07:46:34.942Z,3.79
2022-11-05T07:46:59.418Z,3.86
2022-11-05T07:47:47.940Z,3.94
2022-11-05T07:48:55.886Z,3.97
2022-11-05T07:49:53.377Z,4.04
2022-11-05T07:50:59.742Z,4.08
2022-11-05T07:51:58.644Z,4.18
2022-11-05T07:52:59.209Z,4.22
2022-11-05T07:53:58.176Z,4.26
2022-11-05T07:54:55.708Z,4.36
2022-11-05T07:55:51.604Z,4.44
2022-11-05T07:56:48.645Z,4.55
2022-11-05T07:57:59.744Z,4.59
2022-11-05T07:58:54.329Z,4.64
2022-11-05T07:59:57.717Z,4.65
2022-11-05T08:00:51.492Z,4.72
2022-11-05T08:02:23.872Z,4.72
2022-11-05T08:03:02.126Z,4.73
2022-11-05T08:03:51.335Z,4.72
2022-11-05T08:04:59.203Z,4.75
2022-11-05T08:05:45.799Z,4.79
2022-11-05T08:06:42.968Z,4.84
2022-11-05T08:07:45.323Z,4.89
2022-11-05T08:08:51.125Z,4.91
2022-11-05T08:09:57.287Z,4.88
2022-11-05T08:11:39.675Z,4.89
2022-11-05T08:12:02.435Z,4.94
2022-11-05T08:13:13.442Z,4.94
2022-11-05T08:14:03.113Z,4.95
2022-11-05T08:14:54.940Z,4.98
2022-11-05T08:15:50.766Z,4.98
2022-11-05T08:16:53.492Z,4.98
2022-11-05T08:17:51.302Z,5.01
2022-11-05T08:18:54.467Z,5.02
2022-11-05T08:20:04.016Z,5.04
2022-11-05T08:20:45.739Z,5.09
2022-11-05T08:22:03.906Z,5.10
2022-11-05T08:22:57.234Z,5.10
2022-11-05T08:33:42.834Z,5.38
2022-11-05T08:34:35.779Z,5.40
2022-11-05T08:35:37.981Z,5.46
2022-11-05T08:36:34.654Z,5.55
2022-11-05T08:37:34.885Z,5.63
2022-11-05T08:38:34.865Z,5.68
2022-11-05T08:39:34.873Z,5.73
2022-11-05T08:40:34.881Z,5.81
2022-11-05T08:41:34.891Z,5.89
2022-11-05T08:42:34.597Z,5.89
2022-11-05T08:43:34.899Z,5.93
2022-11-05T08:44:34.581Z,5.93
2022-11-05T08:45:34.748Z,5.96
2022-11-05T08:46:41.285Z,6.01
2022-11-05T08:47:42.394Z,6.07
2022-11-05T08:48:35.621Z,6.19
2022-11-05T08:49:36.900Z,6.33
2022-11-05T08:50:44.101Z,6.41
2022-11-05T08:51:45.543Z,6.48
2022-11-05T08:52:34.679Z,6.50
2022-11-05T08:53:35.491Z,6.58
2022-11-05T08:54:36.277Z,6.65
2022-11-05T08:55:43.709Z,6.66
2022-11-05T08:57:04.373Z,6.69
2022-11-05T08:57:51.744Z,6.73
2022-11-05T08:58:36.291Z,6.76
2022-11-05T08:59:57.479Z,6.79
2022-11-05T09:00:50.392Z,6.81
2022-11-05T09:01:41.619Z,6.84
2022-11-05T09:02:38.396Z,6.87
2022-11-05T09:03:35.179Z,6.94
2022-11-05T09:04:44.362Z,6.95
2022-11-05T09:05:42.124Z,6.98
2022-11-05T09:06:36.069Z,7.04
2022-11-05T09:07:46.536Z,7.08
2022-11-05T09:08:40.933Z,7.13
2022-11-05T09:09:41.159Z,7.16
2022-11-05T09:10:53.822Z,7.17
2022-11-05T09:12:05.744Z,7.17
2022-11-05T09:12:37.660Z,7.19
2022-11-05T09:13:54.312Z,7.20
2022-11-05T09:14:37.198Z,7.26
2022-11-05T09:15:51.879Z,7.31
2022-11-05T09:16:36.363Z,7.34
2022-11-05T09:18:05.068Z,7.34
2022-11-05T09:18:38.630Z,7.38
2022-11-05T09:19:54.318Z,7.38
2022-11-05T09:20:43.252Z,7.41
2022-11-05T09:21:39.146Z,7.47
2022-11-05T09:22:43.500Z,7.55
2022-11-05T09:23:37.823Z,7.58
2022-11-05T09:24:34.925Z,7.59
2022-11-05T09:25:36.507Z,7.63
2022-11-05T09:26:35.515Z,7.72
2022-11-05T09:27:39.379Z,7.75
2022-11-05T09:28:36.824Z,7.75
2022-11-05T09:29:43.489Z,7.79
2022-11-05T09:30:36.406Z,7.81
2022-11-05T09:31:42.758Z,7.81
2022-11-05T09:32:41.586Z,7.81
2022-11-05T09:33:42.676Z,7.84
2022-11-05T09:34:57.641Z,7.85
2022-11-05T09:35:36.800Z,7.89
2022-11-05T09:36:51.441Z,7.90
2022-11-05T09:37:55.550Z,7.93
2022-11-05T09:38:42.162Z,7.96
2022-11-05T09:39:40.886Z,7.99
2022-11-05T09:40:43.854Z,8.02
2022-11-05T09:41:36.425Z,8.04
2022-11-05T09:42:41.938Z,8.07
2022-11-05T09:43:36.731Z,8.08
2022-11-05T09:44:48.050Z,8.14
2022-11-05T09:45:40.553Z,8.14
2022-11-05T09:46:39.082Z,8.17
2022-11-05T09:47:37.474Z,8.20
2022-11-05T09:48:36.855Z,8.21
2022-11-05T09:49:34.799Z,8.26
2022-11-05T09:50:38.362Z,8.29
2022-11-05T09:51:45.311Z,8.32
2022-11-05T09:52:35.888Z,8.33
2022-11-05T09:53:38.010Z,8.36
2022-11-05T09:54:42.403Z,8.37
2022-11-05T09:55:52.023Z,8.42
2022-11-05T09:56:42.578Z,8.44
2022-11-05T09:57:40.125Z,8.44
2022-11-05T09:58:56.218Z,8.48
2022-11-05T09:59:36.233Z,8.54
2022-11-05T10:00:34.598Z,8.58
2022-11-05T10:01:35.653Z,8.62
2022-11-05T10:02:41.503Z,8.63
2022-11-05T10:03:41.287Z,8.68
2022-11-05T10:04:41.913Z,8.69
2022-11-05T10:05:42.273Z,8.72
2022-11-05T10:06:47.158Z,8.73
2022-11-05T10:07:38.737Z,8.78
2022-11-05T10:08:33.859Z,8.79
2022-11-05T10:09:51.449Z,8.79
2022-11-05T10:10:41.149Z,8.83
2022-11-05T10:11:42.064Z,8.84
2022-11-05T10:12:35.560Z,8.86
2022-11-05T10:13:36.324Z,8.88
2022-11-05T10:14:46.985Z,8.91
2022-11-05T10:15:39.341Z,8.93
2022-11-05T10:16:35.660Z,8.94
2022-11-05T10:17:39.223Z,8.94
2022-11-05T10:18:59.166Z,8.96
2022-11-05T10:19:35.737Z,9.02
2022-11-05T10:20:43.105Z,9.09
2022-11-05T10:22:49.339Z,9.15
2022-11-05T10:23:39.760Z,9.20
2022-11-05T10:24:41.061Z,9.21
2022-11-05T10:25:45.849Z,9.23
2022-11-05T10:26:41.098Z,9.25
2022-11-05T10:27:51.302Z,9.25
2022-11-05T10:28:37.124Z,9.28
2022-11-05T10:29:45.700Z,9.31
2022-11-05T10:30:38.821Z,9.35
2022-11-05T10:31:42.002Z,9.39
2022-11-05T10:32:41.302Z,9.42
2022-11-05T10:33:34.458Z,9.42
2022-11-05T10:34:37.664Z,9.46
2022-11-05T10:35:36.514Z,9.49
2022-11-05T10:36:36.797Z,9.50
2022-11-05T10:37:41.271Z,9.50
2022-11-05T10:38:57.671Z,9.56
2022-11-05T10:39:36.233Z,9.58
2022-11-05T10:40:34.395Z,9.63
2022-11-05T10:41:40.301Z,9.64
2022-11-05T10:42:37.645Z,9.68
2022-11-05T10:43:43.937Z,9.71
2022-11-05T10:44:35.196Z,9.79
2022-11-05T10:45:48.023Z,9.85
2022-11-05T10:46:54.464Z,9.86
2022-11-05T10:47:39.554Z,9.86
2022-11-05T10:48:43.657Z,9.88
2022-11-05T10:49:44.947Z,9.89
2022-11-05T10:52:05.073Z,9.97
2022-11-05T10:53:16.590Z,10.00
2022-11-05T10:54:02.275Z,10.04
2022-11-05T10:55:10.331Z,10.09
2022-11-05T10:55:59.884Z,10.15
2022-11-05T10:56:58.334Z,10.17
2022-11-05T10:58:05.391Z,10.18
2022-11-05T10:59:07.944Z,10.19
2022-11-05T11:00:10.113Z,10.19
2022-11-05T11:01:06.919Z,10.26
2022-11-05T11:02:10.401Z,10.28
2022-11-05T11:03:00.292Z,10.32
2022-11-05T11:04:10.309Z,10.36
2022-11-05T11:05:02.090Z,10.37
2022-11-05T11:06:08.388Z,10.40
2022-11-05T11:07:01.770Z,10.44
2022-11-05T11:07:59.004Z,10.47
2022-11-05T11:09:22.751Z,10.52
2022-11-05T11:09:58.418Z,10.58
2022-11-05T11:11:20.327Z,10.60
2022-11-05T11:11:57.800Z,10.65
2022-11-05T11:13:06.462Z,10.73
2022-11-05T11:14:04.111Z,10.84
2022-11-05T11:15:13.724Z,10.99
2022-11-05T11:16:13.514Z,11.20
2022-11-05T11:17:04.110Z,11.43
2022-11-05T11:18:28.041Z,11.67
2022-11-05T11:19:10.384Z,11.86
2022-11-05T11:20:19.390Z,12.05
2022-11-05T11:21:16.301Z,12.08
2022-11-05T11:22:08.584Z,12.16
2022-11-05T11:23:10.959Z,12.21
2022-11-05T11:24:05.144Z,12.26
2022-11-05T11:25:03.520Z,12.31
2022-11-05T11:26:04.830Z,12.41
2022-11-05T11:27:02.691Z,12.45
2022-11-05T11:28:05.087Z,12.51
2022-11-05T11:28:57.747Z,12.59
2022-11-05T11:30:05.226Z,12.51
2022-11-05T11:31:06.916Z,12.48
2022-11-05T11:32:07.713Z,12.38
2022-11-05T11:32:59.270Z,12.29
2022-11-05T11:34:17.576Z,12.16
2022-11-05T11:35:16.382Z,12.13
2022-11-05T11:36:18.196Z,12.11
2022-11-05T11:37:03.639Z,12.12
2022-11-05T11:38:26.202Z,12.16
2022-11-05T11:39:27.785Z,12.15
2022-11-05T11:40:00.366Z,12.13
2022-11-05T11:41:00.935Z,12.24
2022-11-05T11:42:03.030Z,12.37
2022-11-05T11:43:02.271Z,12.45
2022-11-05T11:44:00.545Z,12.52
2022-11-05T11:45:07.293Z,12.59
2022-11-05T11:46:06.064Z,12.66
2022-11-05T11:47:03.446Z,12.63
2022-11-05T11:47:57.224Z,12.64
2022-11-05T11:49:06.769Z,12.67
2022-11-05T11:50:01.548Z,12.71
2022-11-05T11:51:06.716Z,12.82
2022-11-05T11:52:05.950Z,12.85
2022-11-05T11:53:04.308Z,12.84
2022-11-05T11:57:01.438Z,12.79
2022-11-05T11:58:00.881Z,12.77
2022-11-05T11:59:01.297Z,12.71
2022-11-05T12:00:13.128Z,12.62
2022-11-05T12:01:12.454Z,12.69
2022-11-05T12:02:10.663Z,12.71
2022-11-05T12:03:02.618Z,12.85
2022-11-05T12:04:07.511Z,13.09
2022-11-05T12:04:58.047Z,13.25
2022-11-05T12:06:02.369Z,13.33
2022-11-05T12:07:04.200Z,13.49
2022-11-05T12:08:09.719Z,13.58
2022-11-05T12:09:07.186Z,13.55
2022-11-05T12:10:12.199Z,13.46
2022-11-05T12:11:02.706Z,13.41
2022-11-05T12:12:23.879Z,13.36
2022-11-05T12:13:14.754Z,13.30
2022-11-05T12:14:06.363Z,13.30
2022-11-05T12:15:02.870Z,13.33
2022-11-05T12:16:02.123Z,13.29
2022-11-05T12:16:59.710Z,13.25
2022-11-05T12:18:07.739Z,13.24
2022-11-05T12:19:09.544Z,13.30
2022-11-05T12:20:09.381Z,13.30
2022-11-05T12:21:07.108Z,13.27
2022-11-05T12:22:06.941Z,13.22
2022-11-05T12:23:12.589Z,13.15
2022-11-05T12:24:05.698Z,13.12
2022-11-05T12:25:05.156Z,13.12
2022-11-05T12:26:12.838Z,13.12
2022-11-05T12:27:02.550Z,13.09
2022-11-05T12:28:04.684Z,13.11
2022-11-05T12:29:18.527Z,13.11
2022-11-05T12:30:04.952Z,13.22
2022-11-05T12:31:06.592Z,13.32
2022-11-05T12:32:02.446Z,13.51
2022-11-05T12:33:08.574Z,13.79
2022-11-05T12:34:00.494Z,13.83
2022-11-05T12:34:58.632Z,13.92
2022-11-05T12:35:58.055Z,14.04
2022-11-05T12:36:57.999Z,14.27
2022-11-05T12:38:25.001Z,14.52
2022-11-05T12:39:15.503Z,14.54
2022-11-05T12:40:01.078Z,14.68
2022-11-05T12:41:02.034Z,15.36
2022-11-05T12:47:08.778Z,16.50
2022-11-05T12:47:55.079Z,16.55
2022-11-05T12:48:58.166Z,16.53
2022-11-05T12:49:57.876Z,16.58
2022-11-05T12:51:00.272Z,16.59
2022-11-05T12:52:00.126Z,16.73
2022-11-05T12:53:00.911Z,16.89
2022-11-05T12:53:55.855Z,17.14
2022-11-05T12:54:55.277Z,17.22
2022-11-05T12:56:00.453Z,17.20
2022-11-05T12:56:55.515Z,17.25
2022-11-05T12:58:15.462Z,17.38
2022-11-05T13:00:38.009Z,17.25
2022-11-05T13:01:42.744Z,17.04
2022-11-05T13:02:50.002Z,17.00
2022-11-05T13:03:42.469Z,16.88
2022-11-05T13:04:53.647Z,16.75
2022-11-05T13:08:30.393Z,16.73
2022-11-05T13:08:59.397Z,16.75
2022-11-05T13:10:25.683Z,16.75
2022-11-05T13:11:00.908Z,16.58
2022-11-05T13:12:09.301Z,16.49
2022-11-05T13:13:03.340Z,16.59
2022-11-05T13:14:09.432Z,16.50
2022-11-05T13:15:24.037Z,16.53
2022-11-05T13:16:06.357Z,16.26
2022-11-05T13:17:06.147Z,16.34
2022-11-05T13:18:13.683Z,16.50
2022-11-05T13:20:55.968Z,16.25
2022-11-05T13:21:58.905Z,16.38
2022-11-05T13:22:58.044Z,15.96
2022-11-05T13:24:06.202Z,15.78
2022-11-05T13:25:13.354Z,15.61
2022-11-05T13:25:53.125Z,15.43
2022-11-05T13:28:55.858Z,14.57
2022-11-05T13:29:43.216Z,14.29
2022-11-05T13:30:43.841Z,14.06
2022-11-05T13:32:35.229Z,13.79
2022-11-05T13:33:50.961Z,13.70
2022-11-05T13:34:37.386Z,13.63
2022-11-05T13:35:33.915Z,13.61
2022-11-05T13:36:55.148Z,13.59
2022-11-05T13:37:35.410Z,13.47
2022-11-05T13:38:43.038Z,13.41
2022-11-05T13:39:33.207Z,13.36
2022-11-05T13:40:39.308Z,13.30
2022-11-05T13:41:37.211Z,13.20
2022-11-05T13:42:34.828Z,13.04
2022-11-05T13:43:32.171Z,12.92
2022-11-05T13:44:41.776Z,12.78
2022-11-05T13:45:36.110Z,12.70
2022-11-05T13:46:37.471Z,12.60
2022-11-05T13:47:50.896Z,12.49
2022-11-05T13:49:08.901Z,12.42
2022-11-05T13:49:39.175Z,12.31
2022-11-05T13:50:39.045Z,12.23
2022-11-05T13:51:41.748Z,12.19
2022-11-05T13:55:00.424Z,12.16
2022-11-05T13:55:39.687Z,12.20
2022-11-05T13:56:35.682Z,12.21
2022-11-05T13:57:58.009Z,12.20
2022-11-05T13:58:45.149Z,12.16
2022-11-05T13:59:34.199Z,12.13
2022-11-05T14:00:37.772Z,12.11
2022-11-05T14:01:47.632Z,12.08
2022-11-05T14:02:39.223Z,12.06
2022-11-05T14:03:51.595Z,12.09
2022-11-05T14:04:43.887Z,12.12
2022-11-05T14:05:39.571Z,12.15
2022-11-05T14:06:44.067Z,12.16
2022-11-05T14:07:42.842Z,12.21
2022-11-05T14:08:47.928Z,12.24
2022-11-05T14:09:38.840Z,12.24
2022-11-05T14:10:35.987Z,12.20
2022-11-05T14:11:46.486Z,12.16
2022-11-05T14:12:41.645Z,12.12
2022-11-05T14:13:35.945Z,12.06
2022-11-05T14:14:44.068Z,12.06
2022-11-05T14:15:50.604Z,12.04
2022-11-05T14:16:42.915Z,12.02
2022-11-05T14:17:39.015Z,11.99
2022-11-05T14:18:38.261Z,11.96
2022-11-05T14:19:50.079Z,11.89
2022-11-05T14:20:44.990Z,11.83
2022-11-05T14:21:42.836Z,11.80
2022-11-05T14:22:53.871Z,11.74
2022-11-05T14:23:53.682Z,11.67
2022-11-05T14:25:50.734Z,11.56
2022-11-05T14:27:05.067Z,11.50
2022-11-05T14:27:51.508Z,11.46
2022-11-05T14:28:59.095Z,11.43
2022-11-05T14:30:15.915Z,11.41
2022-11-05T14:30:57.943Z,11.38
2022-11-05T14:32:13.834Z,11.36
2022-11-05T14:32:56.543Z,11.35
2022-11-05T14:33:57.339Z,11.31
2022-11-05T14:34:57.850Z,11.31
2022-11-05T14:35:54.731Z,11.27
2022-11-05T14:37:02.640Z,11.20
2022-11-05T14:37:59.104Z,11.17
2022-11-05T14:38:57.755Z,11.14
2022-11-05T14:39:50.399Z,11.09
2022-11-05T14:43:21.048Z,11.03
2022-11-05T14:44:15.403Z,10.98
2022-11-05T14:45:19.754Z,10.96
2022-11-05T14:46:11.861Z,10.95
2022-11-05T14:47:13.442Z,10.91
2022-11-05T14:48:08.643Z,10.88
2022-11-05T14:49:17.020Z,10.83
2022-11-05T14:50:16.223Z,10.78
2022-11-05T14:51:14.796Z,10.76
2022-11-05T14:52:20.867Z,10.74
2022-11-05T14:53:18.808Z,10.68
2022-11-05T14:54:29.144Z,10.62
2022-11-05T14:55:20.280Z,10.58
2022-11-05T14:56:13.964Z,10.53
2022-11-05T14:57:12.517Z,10.46
2022-11-05T14:58:11.946Z,10.39
2022-11-05T14:59:36.137Z,10.32
2022-11-05T15:00:20.322Z,10.30
2022-11-05T15:01:11.509Z,10.26
2022-11-05T15:02:13.965Z,10.22
2022-11-05T15:03:12.710Z,10.18
2022-11-05T15:04:14.902Z,10.14
2022-11-05T15:05:23.259Z,10.06
2022-11-05T15:06:11.953Z,10.00
2022-11-05T15:07:16.157Z,9.94
2022-11-05T15:08:11.901Z,9.85
2022-11-05T15:09:07.177Z,9.81
2022-11-05T15:10:15.479Z,9.76
2022-11-05T15:11:07.109Z,9.73
2022-11-05T15:12:10.601Z,9.71
2022-11-05T15:13:16.593Z,9.73
2022-11-05T15:14:53.845Z,9.70
2022-11-05T15:15:17.374Z,9.68
2022-11-05T15:16:12.632Z,9.67
2022-11-05T15:17:12.757Z,9.67
2022-11-05T15:18:04.037Z,9.67
2022-11-05T15:19:10.009Z,9.67
2022-11-05T15:20:07.156Z,9.66
2022-11-05T15:21:11.223Z,9.60
2022-11-05T15:22:09.038Z,9.52
2022-11-05T15:23:30.820Z,9.48
2022-11-05T15:24:08.428Z,9.40
2022-11-05T15:25:03.353Z,9.34
2022-11-05T15:26:07.845Z,9.27
2022-11-05T15:27:30.125Z,9.23
2022-11-05T15:28:11.899Z,9.15
2022-11-05T15:29:06.692Z,9.16
2022-11-05T15:30:09.392Z,9.16
2022-11-05T15:31:04.438Z,9.18
2022-11-05T15:32:20.638Z,9.15
2022-11-05T15:33:08.352Z,9.12
2022-11-05T15:34:19.994Z,9.09
2022-11-05T15:35:14.060Z,9.01
2022-11-05T15:36:14.000Z,8.93
2022-11-05T15:37:08.717Z,8.90
2022-11-05T15:38:08.925Z,8.86
2022-11-05T15:39:28.408Z,8.83
2022-11-05T15:40:08.445Z,8.79
2022-11-05T15:41:07.696Z,8.76
2022-11-05T15:42:09.530Z,8.72
2022-11-05T15:43:13.899Z,8.71
2022-11-05T15:44:17.082Z,8.68
2022-11-05T15:45:17.453Z,8.62
2022-11-05T15:46:04.623Z,8.58
2022-11-05T15:47:10.467Z,8.55
2022-11-05T15:48:06.072Z,8.51
2022-11-05T15:49:04.112Z,8.48
2022-11-05T15:50:14.460Z,8.47
2022-11-05T15:51:07.628Z,8.50
2022-11-05T15:52:11.576Z,8.50
2022-11-05T15:53:35.803Z,8.48
2022-11-05T15:55:09.102Z,8.50
2022-11-05T15:56:09.471Z,8.53
2022-11-05T15:57:12.471Z,8.53
2022-11-05T15:58:13.161Z,8.55
2022-11-05T15:59:04.416Z,8.54
2022-11-05T16:00:15.425Z,8.53
2022-11-05T16:01:10.511Z,8.54
2022-11-05T16:02:02.378Z,8.55
2022-11-05T16:03:06.011Z,8.53